<?xml version="1.0" encoding="UTF-8" ?>
<gpx version="1.1" xmlns:xsi="http://www.w3.org/2001/XMLSchema-instance" 
    xmlns="http://www.topografix.com/GPX/1/1" 
    xsi:schemaLocation="http://www.topografix.com/GPX/1/1 http://www.topografix.com/GPX/1/1/gpx.xsd" 
    creator="Openrunner - https://www.openrunner.com" >	<trk>
						<name>11237648-Balade Verte - Circuit du bocage à la Seille- MPL3</name>
						<trkseg>
					<trkpt lat="46.661120" lon="5.268940">
						<ele>182</ele>
						<time>2020-04-27T14:44:49Z</time>
					</trkpt>
					<trkpt lat="46.661070" lon="5.269320">
						<ele>183</ele>
						<time>2020-04-27T14:45:24Z</time>
					</trkpt>
					<trkpt lat="46.662060" lon="5.271500">
						<ele>182</ele>
						<time>2020-04-27T14:49:24Z</time>
					</trkpt>
					<trkpt lat="46.661030" lon="5.272540">
						<ele>186</ele>
						<time>2020-04-27T14:52:11Z</time>
					</trkpt>
					<trkpt lat="46.660950" lon="5.272590">
						<ele>186</ele>
						<time>2020-04-27T14:52:23Z</time>
					</trkpt>
					<trkpt lat="46.660880" lon="5.272600">
						<ele>187</ele>
						<time>2020-04-27T14:52:32Z</time>
					</trkpt>
					<trkpt lat="46.660770" lon="5.272550">
						<ele>187</ele>
						<time>2020-04-27T14:52:47Z</time>
					</trkpt>
					<trkpt lat="46.660660" lon="5.272530">
						<ele>188</ele>
						<time>2020-04-27T14:53:02Z</time>
					</trkpt>
					<trkpt lat="46.659900" lon="5.273500">
						<ele>193</ele>
						<time>2020-04-27T14:55:17Z</time>
					</trkpt>
					<trkpt lat="46.660250" lon="5.274130">
						<ele>193</ele>
						<time>2020-04-27T14:56:31Z</time>
					</trkpt>
					<trkpt lat="46.660480" lon="5.274610">
						<ele>194</ele>
						<time>2020-04-27T14:57:25Z</time>
					</trkpt>
					<trkpt lat="46.660650" lon="5.274910">
						<ele>194</ele>
						<time>2020-04-27T14:58:01Z</time>
					</trkpt>
					<trkpt lat="46.661080" lon="5.275590">
						<ele>195</ele>
						<time>2020-04-27T14:59:25Z</time>
					</trkpt>
					<trkpt lat="46.661240" lon="5.275880">
						<ele>195</ele>
						<time>2020-04-27T14:59:59Z</time>
					</trkpt>
					<trkpt lat="46.661360" lon="5.276070">
						<ele>196</ele>
						<time>2020-04-27T15:00:23Z</time>
					</trkpt>
					<trkpt lat="46.661400" lon="5.276210">
						<ele>196</ele>
						<time>2020-04-27T15:00:37Z</time>
					</trkpt>
					<trkpt lat="46.661480" lon="5.276530">
						<ele>198</ele>
						<time>2020-04-27T15:01:08Z</time>
					</trkpt>
					<trkpt lat="46.661500" lon="5.276770">
						<ele>200</ele>
						<time>2020-04-27T15:01:30Z</time>
					</trkpt>
					<trkpt lat="46.661510" lon="5.277280">
						<ele>202</ele>
						<time>2020-04-27T15:02:17Z</time>
					</trkpt>
					<trkpt lat="46.661750" lon="5.277580">
						<ele>203</ele>
						<time>2020-04-27T15:02:59Z</time>
					</trkpt>
					<trkpt lat="46.662150" lon="5.278230">
						<ele>203</ele>
						<time>2020-04-27T15:04:19Z</time>
					</trkpt>
					<trkpt lat="46.662810" lon="5.278960">
						<ele>200</ele>
						<time>2020-04-27T15:06:10Z</time>
					</trkpt>
					<trkpt lat="46.662900" lon="5.279130">
						<ele>200</ele>
						<time>2020-04-27T15:06:29Z</time>
					</trkpt>
					<trkpt lat="46.663000" lon="5.279370">
						<ele>200</ele>
						<time>2020-04-27T15:06:55Z</time>
					</trkpt>
					<trkpt lat="46.663130" lon="5.279990">
						<ele>200</ele>
						<time>2020-04-27T15:07:54Z</time>
					</trkpt>
					<trkpt lat="46.663250" lon="5.280300">
						<ele>200</ele>
						<time>2020-04-27T15:08:27Z</time>
					</trkpt>
					<trkpt lat="46.663550" lon="5.280840">
						<ele>200</ele>
						<time>2020-04-27T15:09:31Z</time>
					</trkpt>
					<trkpt lat="46.663740" lon="5.281120">
						<ele>200</ele>
						<time>2020-04-27T15:10:07Z</time>
					</trkpt>
					<trkpt lat="46.663920" lon="5.281530">
						<ele>201</ele>
						<time>2020-04-27T15:10:51Z</time>
					</trkpt>
					<trkpt lat="46.664020" lon="5.281870">
						<ele>201</ele>
						<time>2020-04-27T15:11:25Z</time>
					</trkpt>
					<trkpt lat="46.664020" lon="5.282400">
						<ele>203</ele>
						<time>2020-04-27T15:12:14Z</time>
					</trkpt>
					<trkpt lat="46.664040" lon="5.282490">
						<ele>203</ele>
						<time>2020-04-27T15:12:22Z</time>
					</trkpt>
					<trkpt lat="46.663940" lon="5.282600">
						<ele>203</ele>
						<time>2020-04-27T15:12:39Z</time>
					</trkpt>
					<trkpt lat="46.664040" lon="5.282870">
						<ele>203</ele>
						<time>2020-04-27T15:13:07Z</time>
					</trkpt>
					<trkpt lat="46.664130" lon="5.283060">
						<ele>204</ele>
						<time>2020-04-27T15:13:28Z</time>
					</trkpt>
					<trkpt lat="46.664390" lon="5.283450">
						<ele>204</ele>
						<time>2020-04-27T15:14:18Z</time>
					</trkpt>
					<trkpt lat="46.664500" lon="5.283680">
						<ele>204</ele>
						<time>2020-04-27T15:14:44Z</time>
					</trkpt>
					<trkpt lat="46.664580" lon="5.283880">
						<ele>204</ele>
						<time>2020-04-27T15:15:05Z</time>
					</trkpt>
					<trkpt lat="46.664810" lon="5.284250">
						<ele>204</ele>
						<time>2020-04-27T15:15:51Z</time>
					</trkpt>
					<trkpt lat="46.665140" lon="5.284410">
						<ele>204</ele>
						<time>2020-04-27T15:16:37Z</time>
					</trkpt>
					<trkpt lat="46.665400" lon="5.284470">
						<ele>204</ele>
						<time>2020-04-27T15:17:12Z</time>
					</trkpt>
					<trkpt lat="46.665930" lon="5.284650">
						<ele>204</ele>
						<time>2020-04-27T15:18:25Z</time>
					</trkpt>
					<trkpt lat="46.666090" lon="5.284670">
						<ele>204</ele>
						<time>2020-04-27T15:18:46Z</time>
					</trkpt>
					<trkpt lat="46.666280" lon="5.284750">
						<ele>204</ele>
						<time>2020-04-27T15:19:13Z</time>
					</trkpt>
					<trkpt lat="46.666600" lon="5.284930">
						<ele>204</ele>
						<time>2020-04-27T15:19:58Z</time>
					</trkpt>
					<trkpt lat="46.666800" lon="5.285090">
						<ele>204</ele>
						<time>2020-04-27T15:20:29Z</time>
					</trkpt>
					<trkpt lat="46.666940" lon="5.285150">
						<ele>205</ele>
						<time>2020-04-27T15:20:48Z</time>
					</trkpt>
					<trkpt lat="46.667080" lon="5.285240">
						<ele>205</ele>
						<time>2020-04-27T15:21:09Z</time>
					</trkpt>
					<trkpt lat="46.667280" lon="5.285410">
						<ele>205</ele>
						<time>2020-04-27T15:21:40Z</time>
					</trkpt>
					<trkpt lat="46.667540" lon="5.285850">
						<ele>206</ele>
						<time>2020-04-27T15:22:33Z</time>
					</trkpt>
					<trkpt lat="46.667840" lon="5.286520">
						<ele>206</ele>
						<time>2020-04-27T15:23:46Z</time>
					</trkpt>
					<trkpt lat="46.668090" lon="5.287260">
						<ele>205</ele>
						<time>2020-04-27T15:25:02Z</time>
					</trkpt>
					<trkpt lat="46.668340" lon="5.287880">
						<ele>205</ele>
						<time>2020-04-27T15:26:07Z</time>
					</trkpt>
					<trkpt lat="46.668710" lon="5.289320">
						<ele>205</ele>
						<time>2020-04-27T15:28:28Z</time>
					</trkpt>
					<trkpt lat="46.669000" lon="5.290240">
						<ele>205</ele>
						<time>2020-04-27T15:30:01Z</time>
					</trkpt>
					<trkpt lat="46.669270" lon="5.291170">
						<ele>206</ele>
						<time>2020-04-27T15:31:33Z</time>
					</trkpt>
					<trkpt lat="46.669110" lon="5.291380">
						<ele>205</ele>
						<time>2020-04-27T15:32:02Z</time>
					</trkpt>
					<trkpt lat="46.669020" lon="5.291550">
						<ele>203</ele>
						<time>2020-04-27T15:32:22Z</time>
					</trkpt>
					<trkpt lat="46.668980" lon="5.291780">
						<ele>203</ele>
						<time>2020-04-27T15:32:44Z</time>
					</trkpt>
					<trkpt lat="46.668860" lon="5.292140">
						<ele>202</ele>
						<time>2020-04-27T15:33:20Z</time>
					</trkpt>
					<trkpt lat="46.668810" lon="5.292390">
						<ele>201</ele>
						<time>2020-04-27T15:33:44Z</time>
					</trkpt>
					<trkpt lat="46.668610" lon="5.292880">
						<ele>197</ele>
						<time>2020-04-27T15:34:36Z</time>
					</trkpt>
					<trkpt lat="46.668500" lon="5.293100">
						<ele>195</ele>
						<time>2020-04-27T15:35:01Z</time>
					</trkpt>
					<trkpt lat="46.668320" lon="5.293570">
						<ele>192</ele>
						<time>2020-04-27T15:35:51Z</time>
					</trkpt>
					<trkpt lat="46.668110" lon="5.294150">
						<ele>191</ele>
						<time>2020-04-27T15:36:51Z</time>
					</trkpt>
					<trkpt lat="46.667860" lon="5.294690">
						<ele>192</ele>
						<time>2020-04-27T15:37:50Z</time>
					</trkpt>
					<trkpt lat="46.667780" lon="5.294940">
						<ele>192</ele>
						<time>2020-04-27T15:38:15Z</time>
					</trkpt>
					<trkpt lat="46.667630" lon="5.295080">
						<ele>193</ele>
						<time>2020-04-27T15:38:39Z</time>
					</trkpt>
					<trkpt lat="46.667520" lon="5.295170">
						<ele>194</ele>
						<time>2020-04-27T15:38:56Z</time>
					</trkpt>
					<trkpt lat="46.667380" lon="5.295220">
						<ele>194</ele>
						<time>2020-04-27T15:39:15Z</time>
					</trkpt>
					<trkpt lat="46.666910" lon="5.295350">
						<ele>197</ele>
						<time>2020-04-27T15:40:19Z</time>
					</trkpt>
					<trkpt lat="46.666800" lon="5.295400">
						<ele>197</ele>
						<time>2020-04-27T15:40:35Z</time>
					</trkpt>
					<trkpt lat="46.666670" lon="5.295500">
						<ele>198</ele>
						<time>2020-04-27T15:40:54Z</time>
					</trkpt>
					<trkpt lat="46.666490" lon="5.295680">
						<ele>199</ele>
						<time>2020-04-27T15:41:23Z</time>
					</trkpt>
					<trkpt lat="46.666410" lon="5.295820">
						<ele>200</ele>
						<time>2020-04-27T15:41:40Z</time>
					</trkpt>
					<trkpt lat="46.666320" lon="5.296130">
						<ele>201</ele>
						<time>2020-04-27T15:42:11Z</time>
					</trkpt>
					<trkpt lat="46.666210" lon="5.296410">
						<ele>202</ele>
						<time>2020-04-27T15:42:40Z</time>
					</trkpt>
					<trkpt lat="46.666140" lon="5.296580">
						<ele>202</ele>
						<time>2020-04-27T15:42:58Z</time>
					</trkpt>
					<trkpt lat="46.666040" lon="5.296630">
						<ele>203</ele>
						<time>2020-04-27T15:43:13Z</time>
					</trkpt>
					<trkpt lat="46.665950" lon="5.296630">
						<ele>203</ele>
						<time>2020-04-27T15:43:25Z</time>
					</trkpt>
					<trkpt lat="46.665780" lon="5.296930">
						<ele>203</ele>
						<time>2020-04-27T15:44:00Z</time>
					</trkpt>
					<trkpt lat="46.665600" lon="5.297130">
						<ele>202</ele>
						<time>2020-04-27T15:44:30Z</time>
					</trkpt>
					<trkpt lat="46.665180" lon="5.297420">
						<ele>203</ele>
						<time>2020-04-27T15:45:32Z</time>
					</trkpt>
					<trkpt lat="46.665040" lon="5.297520">
						<ele>203</ele>
						<time>2020-04-27T15:45:53Z</time>
					</trkpt>
					<trkpt lat="46.664880" lon="5.297710">
						<ele>203</ele>
						<time>2020-04-27T15:46:21Z</time>
					</trkpt>
					<trkpt lat="46.664680" lon="5.298020">
						<ele>203</ele>
						<time>2020-04-27T15:47:00Z</time>
					</trkpt>
					<trkpt lat="46.664580" lon="5.298150">
						<ele>203</ele>
						<time>2020-04-27T15:47:18Z</time>
					</trkpt>
					<trkpt lat="46.664460" lon="5.298250">
						<ele>204</ele>
						<time>2020-04-27T15:47:36Z</time>
					</trkpt>
					<trkpt lat="46.664010" lon="5.298690">
						<ele>204</ele>
						<time>2020-04-27T15:48:48Z</time>
					</trkpt>
					<trkpt lat="46.663320" lon="5.299560">
						<ele>204</ele>
						<time>2020-04-27T15:50:50Z</time>
					</trkpt>
					<trkpt lat="46.664110" lon="5.301210">
						<ele>203</ele>
						<time>2020-04-27T15:53:54Z</time>
					</trkpt>
					<trkpt lat="46.664200" lon="5.301420">
						<ele>204</ele>
						<time>2020-04-27T15:54:17Z</time>
					</trkpt>
					<trkpt lat="46.664270" lon="5.301740">
						<ele>204</ele>
						<time>2020-04-27T15:54:48Z</time>
					</trkpt>
					<trkpt lat="46.664300" lon="5.301930">
						<ele>203</ele>
						<time>2020-04-27T15:55:06Z</time>
					</trkpt>
					<trkpt lat="46.664310" lon="5.302500">
						<ele>202</ele>
						<time>2020-04-27T15:55:58Z</time>
					</trkpt>
					<trkpt lat="46.664390" lon="5.302770">
						<ele>203</ele>
						<time>2020-04-27T15:56:25Z</time>
					</trkpt>
					<trkpt lat="46.664700" lon="5.303520">
						<ele>205</ele>
						<time>2020-04-27T15:57:45Z</time>
					</trkpt>
					<trkpt lat="46.665080" lon="5.304500">
						<ele>206</ele>
						<time>2020-04-27T15:59:28Z</time>
					</trkpt>
					<trkpt lat="46.665180" lon="5.304940">
						<ele>205</ele>
						<time>2020-04-27T16:00:11Z</time>
					</trkpt>
					<trkpt lat="46.665350" lon="5.305810">
						<ele>205</ele>
						<time>2020-04-27T16:01:33Z</time>
					</trkpt>
					<trkpt lat="46.665460" lon="5.306870">
						<ele>205</ele>
						<time>2020-04-27T16:03:12Z</time>
					</trkpt>
					<trkpt lat="46.665530" lon="5.307260">
						<ele>205</ele>
						<time>2020-04-27T16:03:49Z</time>
					</trkpt>
					<trkpt lat="46.665430" lon="5.307300">
						<ele>205</ele>
						<time>2020-04-27T16:04:02Z</time>
					</trkpt>
					<trkpt lat="46.665340" lon="5.307290">
						<ele>205</ele>
						<time>2020-04-27T16:04:14Z</time>
					</trkpt>
					<trkpt lat="46.664710" lon="5.307040">
						<ele>205</ele>
						<time>2020-04-27T16:05:42Z</time>
					</trkpt>
					<trkpt lat="46.663420" lon="5.306530">
						<ele>203</ele>
						<time>2020-04-27T16:08:40Z</time>
					</trkpt>
					<trkpt lat="46.662250" lon="5.306020">
						<ele>204</ele>
						<time>2020-04-27T16:11:23Z</time>
					</trkpt>
					<trkpt lat="46.661970" lon="5.305880">
						<ele>204</ele>
						<time>2020-04-27T16:12:02Z</time>
					</trkpt>
					<trkpt lat="46.661050" lon="5.305180">
						<ele>204</ele>
						<time>2020-04-27T16:14:21Z</time>
					</trkpt>
					<trkpt lat="46.660950" lon="5.305030">
						<ele>204</ele>
						<time>2020-04-27T16:14:40Z</time>
					</trkpt>
					<trkpt lat="46.660890" lon="5.304730">
						<ele>204</ele>
						<time>2020-04-27T16:15:09Z</time>
					</trkpt>
					<trkpt lat="46.660800" lon="5.304560">
						<ele>204</ele>
						<time>2020-04-27T16:15:28Z</time>
					</trkpt>
					<trkpt lat="46.660610" lon="5.304450">
						<ele>204</ele>
						<time>2020-04-27T16:15:56Z</time>
					</trkpt>
					<trkpt lat="46.660480" lon="5.304360">
						<ele>204</ele>
						<time>2020-04-27T16:16:15Z</time>
					</trkpt>
					<trkpt lat="46.659690" lon="5.304010">
						<ele>204</ele>
						<time>2020-04-27T16:18:05Z</time>
					</trkpt>
					<trkpt lat="46.659390" lon="5.303930">
						<ele>203</ele>
						<time>2020-04-27T16:18:46Z</time>
					</trkpt>
					<trkpt lat="46.658850" lon="5.303700">
						<ele>204</ele>
						<time>2020-04-27T16:20:01Z</time>
					</trkpt>
					<trkpt lat="46.658110" lon="5.303400">
						<ele>204</ele>
						<time>2020-04-27T16:21:43Z</time>
					</trkpt>
					<trkpt lat="46.657820" lon="5.303290">
						<ele>204</ele>
						<time>2020-04-27T16:22:23Z</time>
					</trkpt>
					<trkpt lat="46.657090" lon="5.302980">
						<ele>204</ele>
						<time>2020-04-27T16:24:05Z</time>
					</trkpt>
					<trkpt lat="46.656600" lon="5.302790">
						<ele>204</ele>
						<time>2020-04-27T16:25:12Z</time>
					</trkpt>
					<trkpt lat="46.655180" lon="5.302360">
						<ele>204</ele>
						<time>2020-04-27T16:28:26Z</time>
					</trkpt>
					<trkpt lat="46.654050" lon="5.301990">
						<ele>204</ele>
						<time>2020-04-27T16:31:01Z</time>
					</trkpt>
					<trkpt lat="46.653940" lon="5.301900">
						<ele>204</ele>
						<time>2020-04-27T16:31:17Z</time>
					</trkpt>
					<trkpt lat="46.653570" lon="5.302530">
						<ele>203</ele>
						<time>2020-04-27T16:32:33Z</time>
					</trkpt>
					<trkpt lat="46.653460" lon="5.302720">
						<ele>203</ele>
						<time>2020-04-27T16:32:56Z</time>
					</trkpt>
					<trkpt lat="46.652380" lon="5.305040">
						<ele>200</ele>
						<time>2020-04-27T16:37:13Z</time>
					</trkpt>
					<trkpt lat="46.652290" lon="5.305350">
						<ele>200</ele>
						<time>2020-04-27T16:37:44Z</time>
					</trkpt>
					<trkpt lat="46.652090" lon="5.305190">
						<ele>198</ele>
						<time>2020-04-27T16:38:14Z</time>
					</trkpt>
					<trkpt lat="46.651740" lon="5.304760">
						<ele>197</ele>
						<time>2020-04-27T16:39:15Z</time>
					</trkpt>
					<trkpt lat="46.651620" lon="5.304650">
						<ele>197</ele>
						<time>2020-04-27T16:39:34Z</time>
					</trkpt>
					<trkpt lat="46.651480" lon="5.304600">
						<ele>197</ele>
						<time>2020-04-27T16:39:53Z</time>
					</trkpt>
					<trkpt lat="46.651330" lon="5.304600">
						<ele>197</ele>
						<time>2020-04-27T16:40:13Z</time>
					</trkpt>
					<trkpt lat="46.651000" lon="5.304620">
						<ele>197</ele>
						<time>2020-04-27T16:40:57Z</time>
					</trkpt>
					<trkpt lat="46.650640" lon="5.304490">
						<ele>196</ele>
						<time>2020-04-27T16:41:47Z</time>
					</trkpt>
					<trkpt lat="46.650360" lon="5.304390">
						<ele>195</ele>
						<time>2020-04-27T16:42:25Z</time>
					</trkpt>
					<trkpt lat="46.649910" lon="5.304370">
						<ele>194</ele>
						<time>2020-04-27T16:43:26Z</time>
					</trkpt>
					<trkpt lat="46.649460" lon="5.304420">
						<ele>193</ele>
						<time>2020-04-27T16:44:26Z</time>
					</trkpt>
					<trkpt lat="46.648890" lon="5.304560">
						<ele>192</ele>
						<time>2020-04-27T16:45:43Z</time>
					</trkpt>
					<trkpt lat="46.648790" lon="5.304520">
						<ele>191</ele>
						<time>2020-04-27T16:45:57Z</time>
					</trkpt>
					<trkpt lat="46.648690" lon="5.304430">
						<ele>191</ele>
						<time>2020-04-27T16:46:12Z</time>
					</trkpt>
					<trkpt lat="46.648450" lon="5.304080">
						<ele>190</ele>
						<time>2020-04-27T16:46:58Z</time>
					</trkpt>
					<trkpt lat="46.647060" lon="5.303520">
						<ele>197</ele>
						<time>2020-04-27T16:50:10Z</time>
					</trkpt>
					<trkpt lat="46.646770" lon="5.303430">
						<ele>199</ele>
						<time>2020-04-27T16:50:50Z</time>
					</trkpt>
					<trkpt lat="46.646280" lon="5.303310">
						<ele>199</ele>
						<time>2020-04-27T16:51:56Z</time>
					</trkpt>
					<trkpt lat="46.646030" lon="5.303150">
						<ele>200</ele>
						<time>2020-04-27T16:52:32Z</time>
					</trkpt>
					<trkpt lat="46.646030" lon="5.302570">
						<ele>199</ele>
						<time>2020-04-27T16:53:26Z</time>
					</trkpt>
					<trkpt lat="46.646010" lon="5.302220">
						<ele>199</ele>
						<time>2020-04-27T16:53:58Z</time>
					</trkpt>
					<trkpt lat="46.646010" lon="5.301860">
						<ele>198</ele>
						<time>2020-04-27T16:54:31Z</time>
					</trkpt>
					<trkpt lat="46.646120" lon="5.301740">
						<ele>198</ele>
						<time>2020-04-27T16:54:49Z</time>
					</trkpt>
					<trkpt lat="46.646310" lon="5.301000">
						<ele>198</ele>
						<time>2020-04-27T16:56:01Z</time>
					</trkpt>
					<trkpt lat="46.646530" lon="5.300310">
						<ele>199</ele>
						<time>2020-04-27T16:57:11Z</time>
					</trkpt>
					<trkpt lat="46.646790" lon="5.299270">
						<ele>201</ele>
						<time>2020-04-27T16:58:53Z</time>
					</trkpt>
					<trkpt lat="46.646790" lon="5.299080">
						<ele>201</ele>
						<time>2020-04-27T16:59:10Z</time>
					</trkpt>
					<trkpt lat="46.646710" lon="5.299090">
						<ele>201</ele>
						<time>2020-04-27T16:59:21Z</time>
					</trkpt>
					<trkpt lat="46.646630" lon="5.299170">
						<ele>201</ele>
						<time>2020-04-27T16:59:34Z</time>
					</trkpt>
					<trkpt lat="46.646560" lon="5.299260">
						<ele>201</ele>
						<time>2020-04-27T16:59:46Z</time>
					</trkpt>
					<trkpt lat="46.646480" lon="5.299290">
						<ele>200</ele>
						<time>2020-04-27T16:59:57Z</time>
					</trkpt>
					<trkpt lat="46.646410" lon="5.299320">
						<ele>200</ele>
						<time>2020-04-27T17:00:07Z</time>
					</trkpt>
					<trkpt lat="46.646330" lon="5.299310">
						<ele>200</ele>
						<time>2020-04-27T17:00:18Z</time>
					</trkpt>
					<trkpt lat="46.645950" lon="5.299050">
						<ele>199</ele>
						<time>2020-04-27T17:01:14Z</time>
					</trkpt>
					<trkpt lat="46.645620" lon="5.298950">
						<ele>198</ele>
						<time>2020-04-27T17:01:59Z</time>
					</trkpt>
					<trkpt lat="46.645390" lon="5.298650">
						<ele>197</ele>
						<time>2020-04-27T17:02:40Z</time>
					</trkpt>
					<trkpt lat="46.645290" lon="5.298270">
						<ele>197</ele>
						<time>2020-04-27T17:03:17Z</time>
					</trkpt>
					<trkpt lat="46.645060" lon="5.297660">
						<ele>196</ele>
						<time>2020-04-27T17:04:21Z</time>
					</trkpt>
					<trkpt lat="46.644890" lon="5.297270">
						<ele>196</ele>
						<time>2020-04-27T17:05:03Z</time>
					</trkpt>
					<trkpt lat="46.644710" lon="5.296950">
						<ele>195</ele>
						<time>2020-04-27T17:05:41Z</time>
					</trkpt>
					<trkpt lat="46.644460" lon="5.296740">
						<ele>196</ele>
						<time>2020-04-27T17:06:20Z</time>
					</trkpt>
					<trkpt lat="46.644220" lon="5.296420">
						<ele>197</ele>
						<time>2020-04-27T17:07:03Z</time>
					</trkpt>
					<trkpt lat="46.644150" lon="5.296070">
						<ele>198</ele>
						<time>2020-04-27T17:07:36Z</time>
					</trkpt>
					<trkpt lat="46.643960" lon="5.295310">
						<ele>200</ele>
						<time>2020-04-27T17:08:50Z</time>
					</trkpt>
					<trkpt lat="46.643860" lon="5.295120">
						<ele>201</ele>
						<time>2020-04-27T17:09:12Z</time>
					</trkpt>
					<trkpt lat="46.643640" lon="5.294800">
						<ele>202</ele>
						<time>2020-04-27T17:09:54Z</time>
					</trkpt>
					<trkpt lat="46.643510" lon="5.294430">
						<ele>203</ele>
						<time>2020-04-27T17:10:32Z</time>
					</trkpt>
					<trkpt lat="46.643410" lon="5.293960">
						<ele>203</ele>
						<time>2020-04-27T17:11:17Z</time>
					</trkpt>
					<trkpt lat="46.643380" lon="5.293750">
						<ele>202</ele>
						<time>2020-04-27T17:11:37Z</time>
					</trkpt>
					<trkpt lat="46.643120" lon="5.292850">
						<ele>201</ele>
						<time>2020-04-27T17:13:06Z</time>
					</trkpt>
					<trkpt lat="46.644690" lon="5.291620">
						<ele>198</ele>
						<time>2020-04-27T17:17:04Z</time>
					</trkpt>
					<trkpt lat="46.645030" lon="5.291420">
						<ele>198</ele>
						<time>2020-04-27T17:17:53Z</time>
					</trkpt>
					<trkpt lat="46.647100" lon="5.290700">
						<ele>203</ele>
						<time>2020-04-27T17:22:37Z</time>
					</trkpt>
					<trkpt lat="46.647320" lon="5.290550">
						<ele>203</ele>
						<time>2020-04-27T17:23:09Z</time>
					</trkpt>
					<trkpt lat="46.648030" lon="5.290000">
						<ele>203</ele>
						<time>2020-04-27T17:24:57Z</time>
					</trkpt>
					<trkpt lat="46.648280" lon="5.289830">
						<ele>204</ele>
						<time>2020-04-27T17:25:34Z</time>
					</trkpt>
					<trkpt lat="46.649540" lon="5.289320">
						<ele>201</ele>
						<time>2020-04-27T17:28:28Z</time>
					</trkpt>
					<trkpt lat="46.649710" lon="5.289290">
						<ele>200</ele>
						<time>2020-04-27T17:28:51Z</time>
					</trkpt>
					<trkpt lat="46.649940" lon="5.289360">
						<ele>199</ele>
						<time>2020-04-27T17:29:22Z</time>
					</trkpt>
					<trkpt lat="46.650070" lon="5.289530">
						<ele>199</ele>
						<time>2020-04-27T17:29:46Z</time>
					</trkpt>
					<trkpt lat="46.650190" lon="5.289690">
						<ele>198</ele>
						<time>2020-04-27T17:30:07Z</time>
					</trkpt>
					<trkpt lat="46.650310" lon="5.289810">
						<ele>198</ele>
						<time>2020-04-27T17:30:27Z</time>
					</trkpt>
					<trkpt lat="46.650480" lon="5.289850">
						<ele>197</ele>
						<time>2020-04-27T17:30:50Z</time>
					</trkpt>
					<trkpt lat="46.650810" lon="5.289730">
						<ele>198</ele>
						<time>2020-04-27T17:31:35Z</time>
					</trkpt>
					<trkpt lat="46.651140" lon="5.289500">
						<ele>198</ele>
						<time>2020-04-27T17:32:24Z</time>
					</trkpt>
					<trkpt lat="46.651450" lon="5.289000">
						<ele>199</ele>
						<time>2020-04-27T17:33:26Z</time>
					</trkpt>
					<trkpt lat="46.651660" lon="5.288740">
						<ele>200</ele>
						<time>2020-04-27T17:34:02Z</time>
					</trkpt>
					<trkpt lat="46.651830" lon="5.288530">
						<ele>200</ele>
						<time>2020-04-27T17:34:32Z</time>
					</trkpt>
					<trkpt lat="46.652070" lon="5.288310">
						<ele>200</ele>
						<time>2020-04-27T17:35:10Z</time>
					</trkpt>
					<trkpt lat="46.651780" lon="5.287430">
						<ele>198</ele>
						<time>2020-04-27T17:36:39Z</time>
					</trkpt>
					<trkpt lat="46.651530" lon="5.286870">
						<ele>199</ele>
						<time>2020-04-27T17:37:41Z</time>
					</trkpt>
					<trkpt lat="46.651210" lon="5.286730">
						<ele>202</ele>
						<time>2020-04-27T17:38:25Z</time>
					</trkpt>
					<trkpt lat="46.651010" lon="5.286260">
						<ele>203</ele>
						<time>2020-04-27T17:39:16Z</time>
					</trkpt>
					<trkpt lat="46.650750" lon="5.285570">
						<ele>202</ele>
						<time>2020-04-27T17:40:28Z</time>
					</trkpt>
					<trkpt lat="46.650580" lon="5.285020">
						<ele>202</ele>
						<time>2020-04-27T17:41:23Z</time>
					</trkpt>
					<trkpt lat="46.650370" lon="5.283920">
						<ele>199</ele>
						<time>2020-04-27T17:43:08Z</time>
					</trkpt>
					<trkpt lat="46.650250" lon="5.282730">
						<ele>191</ele>
						<time>2020-04-27T17:44:58Z</time>
					</trkpt>
					<trkpt lat="46.650190" lon="5.281870">
						<ele>189</ele>
						<time>2020-04-27T17:46:17Z</time>
					</trkpt>
					<trkpt lat="46.650120" lon="5.280370">
						<ele>197</ele>
						<time>2020-04-27T17:48:35Z</time>
					</trkpt>
					<trkpt lat="46.650420" lon="5.279280">
						<ele>202</ele>
						<time>2020-04-27T17:50:22Z</time>
					</trkpt>
					<trkpt lat="46.650470" lon="5.278340">
						<ele>206</ele>
						<time>2020-04-27T17:51:49Z</time>
					</trkpt>
					<trkpt lat="46.650530" lon="5.277930">
						<ele>206</ele>
						<time>2020-04-27T17:52:27Z</time>
					</trkpt>
					<trkpt lat="46.650420" lon="5.277650">
						<ele>206</ele>
						<time>2020-04-27T17:52:57Z</time>
					</trkpt>
					<trkpt lat="46.650060" lon="5.277330">
						<ele>207</ele>
						<time>2020-04-27T17:53:53Z</time>
					</trkpt>
					<trkpt lat="46.649830" lon="5.276990">
						<ele>206</ele>
						<time>2020-04-27T17:54:37Z</time>
					</trkpt>
					<trkpt lat="46.649690" lon="5.276840">
						<ele>205</ele>
						<time>2020-04-27T17:55:00Z</time>
					</trkpt>
					<trkpt lat="46.649570" lon="5.276930">
						<ele>204</ele>
						<time>2020-04-27T17:55:18Z</time>
					</trkpt>
					<trkpt lat="46.649390" lon="5.276910">
						<ele>203</ele>
						<time>2020-04-27T17:55:42Z</time>
					</trkpt>
					<trkpt lat="46.649080" lon="5.276850">
						<ele>202</ele>
						<time>2020-04-27T17:56:24Z</time>
					</trkpt>
					<trkpt lat="46.648690" lon="5.276770">
						<ele>202</ele>
						<time>2020-04-27T17:57:16Z</time>
					</trkpt>
					<trkpt lat="46.648580" lon="5.276780">
						<ele>201</ele>
						<time>2020-04-27T17:57:31Z</time>
					</trkpt>
					<trkpt lat="46.648450" lon="5.276810">
						<ele>201</ele>
						<time>2020-04-27T17:57:49Z</time>
					</trkpt>
					<trkpt lat="46.648370" lon="5.276870">
						<ele>201</ele>
						<time>2020-04-27T17:58:01Z</time>
					</trkpt>
					<trkpt lat="46.648160" lon="5.277070">
						<ele>201</ele>
						<time>2020-04-27T17:58:34Z</time>
					</trkpt>
					<trkpt lat="46.647960" lon="5.277270">
						<ele>201</ele>
						<time>2020-04-27T17:59:06Z</time>
					</trkpt>
					<trkpt lat="46.647120" lon="5.277640">
						<ele>202</ele>
						<time>2020-04-27T18:01:04Z</time>
					</trkpt>
					<trkpt lat="46.646850" lon="5.277720">
						<ele>201</ele>
						<time>2020-04-27T18:01:40Z</time>
					</trkpt>
					<trkpt lat="46.646620" lon="5.277760">
						<ele>201</ele>
						<time>2020-04-27T18:02:11Z</time>
					</trkpt>
					<trkpt lat="46.646440" lon="5.277730">
						<ele>200</ele>
						<time>2020-04-27T18:02:35Z</time>
					</trkpt>
					<trkpt lat="46.646220" lon="5.277620">
						<ele>199</ele>
						<time>2020-04-27T18:03:06Z</time>
					</trkpt>
					<trkpt lat="46.645580" lon="5.277400">
						<ele>195</ele>
						<time>2020-04-27T18:04:34Z</time>
					</trkpt>
					<trkpt lat="46.645420" lon="5.277380">
						<ele>193</ele>
						<time>2020-04-27T18:04:56Z</time>
					</trkpt>
					<trkpt lat="46.645170" lon="5.277420">
						<ele>191</ele>
						<time>2020-04-27T18:05:29Z</time>
					</trkpt>
					<trkpt lat="46.644980" lon="5.277460">
						<ele>189</ele>
						<time>2020-04-27T18:05:55Z</time>
					</trkpt>
					<trkpt lat="46.644210" lon="5.277740">
						<ele>191</ele>
						<time>2020-04-27T18:07:41Z</time>
					</trkpt>
					<trkpt lat="46.644000" lon="5.277810">
						<ele>192</ele>
						<time>2020-04-27T18:08:09Z</time>
					</trkpt>
					<trkpt lat="46.643790" lon="5.277810">
						<ele>193</ele>
						<time>2020-04-27T18:08:38Z</time>
					</trkpt>
					<trkpt lat="46.643630" lon="5.277670">
						<ele>194</ele>
						<time>2020-04-27T18:09:02Z</time>
					</trkpt>
					<trkpt lat="46.643490" lon="5.277440">
						<ele>195</ele>
						<time>2020-04-27T18:09:31Z</time>
					</trkpt>
					<trkpt lat="46.643470" lon="5.277180">
						<ele>196</ele>
						<time>2020-04-27T18:09:55Z</time>
					</trkpt>
					<trkpt lat="46.643550" lon="5.276650">
						<ele>197</ele>
						<time>2020-04-27T18:10:44Z</time>
					</trkpt>
					<trkpt lat="46.643570" lon="5.276260">
						<ele>197</ele>
						<time>2020-04-27T18:11:20Z</time>
					</trkpt>
					<trkpt lat="46.643500" lon="5.276210">
						<ele>198</ele>
						<time>2020-04-27T18:11:30Z</time>
					</trkpt>
					<trkpt lat="46.643310" lon="5.276110">
						<ele>199</ele>
						<time>2020-04-27T18:11:57Z</time>
					</trkpt>
					<trkpt lat="46.643250" lon="5.276030">
						<ele>199</ele>
						<time>2020-04-27T18:12:08Z</time>
					</trkpt>
					<trkpt lat="46.643200" lon="5.275890">
						<ele>199</ele>
						<time>2020-04-27T18:12:23Z</time>
					</trkpt>
					<trkpt lat="46.643110" lon="5.275630">
						<ele>199</ele>
						<time>2020-04-27T18:12:49Z</time>
					</trkpt>
					<trkpt lat="46.643000" lon="5.275430">
						<ele>199</ele>
						<time>2020-04-27T18:13:13Z</time>
					</trkpt>
					<trkpt lat="46.642800" lon="5.275170">
						<ele>200</ele>
						<time>2020-04-27T18:13:49Z</time>
					</trkpt>
					<trkpt lat="46.642550" lon="5.274680">
						<ele>202</ele>
						<time>2020-04-27T18:14:45Z</time>
					</trkpt>
					<trkpt lat="46.642490" lon="5.274560">
						<ele>202</ele>
						<time>2020-04-27T18:14:58Z</time>
					</trkpt>
					<trkpt lat="46.642370" lon="5.274480">
						<ele>202</ele>
						<time>2020-04-27T18:15:16Z</time>
					</trkpt>
					<trkpt lat="46.642270" lon="5.274360">
						<ele>202</ele>
						<time>2020-04-27T18:15:33Z</time>
					</trkpt>
					<trkpt lat="46.642210" lon="5.274230">
						<ele>202</ele>
						<time>2020-04-27T18:15:47Z</time>
					</trkpt>
					<trkpt lat="46.642160" lon="5.274180">
						<ele>202</ele>
						<time>2020-04-27T18:15:56Z</time>
					</trkpt>
					<trkpt lat="46.641860" lon="5.273870">
						<ele>202</ele>
						<time>2020-04-27T18:16:45Z</time>
					</trkpt>
					<trkpt lat="46.641460" lon="5.273550">
						<ele>201</ele>
						<time>2020-04-27T18:17:46Z</time>
					</trkpt>
					<trkpt lat="46.641370" lon="5.273460">
						<ele>201</ele>
						<time>2020-04-27T18:18:00Z</time>
					</trkpt>
					<trkpt lat="46.641110" lon="5.273150">
						<ele>201</ele>
						<time>2020-04-27T18:18:45Z</time>
					</trkpt>
					<trkpt lat="46.640970" lon="5.272940">
						<ele>201</ele>
						<time>2020-04-27T18:19:12Z</time>
					</trkpt>
					<trkpt lat="46.640880" lon="5.272810">
						<ele>201</ele>
						<time>2020-04-27T18:19:29Z</time>
					</trkpt>
					<trkpt lat="46.640680" lon="5.272550">
						<ele>201</ele>
						<time>2020-04-27T18:20:04Z</time>
					</trkpt>
					<trkpt lat="46.640570" lon="5.272470">
						<ele>201</ele>
						<time>2020-04-27T18:20:21Z</time>
					</trkpt>
					<trkpt lat="46.640110" lon="5.272000">
						<ele>200</ele>
						<time>2020-04-27T18:21:36Z</time>
					</trkpt>
					<trkpt lat="46.639790" lon="5.271670">
						<ele>200</ele>
						<time>2020-04-27T18:22:28Z</time>
					</trkpt>
					<trkpt lat="46.639160" lon="5.270920">
						<ele>196</ele>
						<time>2020-04-27T18:24:17Z</time>
					</trkpt>
					<trkpt lat="46.639090" lon="5.270910">
						<ele>197</ele>
						<time>2020-04-27T18:24:26Z</time>
					</trkpt>
					<trkpt lat="46.639030" lon="5.270890">
						<ele>197</ele>
						<time>2020-04-27T18:24:34Z</time>
					</trkpt>
					<trkpt lat="46.638910" lon="5.270920">
						<ele>198</ele>
						<time>2020-04-27T18:24:51Z</time>
					</trkpt>
					<trkpt lat="46.638740" lon="5.270840">
						<ele>200</ele>
						<time>2020-04-27T18:25:14Z</time>
					</trkpt>
					<trkpt lat="46.638630" lon="5.270650">
						<ele>200</ele>
						<time>2020-04-27T18:25:37Z</time>
					</trkpt>
					<trkpt lat="46.638270" lon="5.270170">
						<ele>203</ele>
						<time>2020-04-27T18:26:42Z</time>
					</trkpt>
					<trkpt lat="46.638060" lon="5.269770">
						<ele>204</ele>
						<time>2020-04-27T18:27:29Z</time>
					</trkpt>
					<trkpt lat="46.637790" lon="5.269500">
						<ele>204</ele>
						<time>2020-04-27T18:28:12Z</time>
					</trkpt>
					<trkpt lat="46.637360" lon="5.269200">
						<ele>205</ele>
						<time>2020-04-27T18:29:16Z</time>
					</trkpt>
					<trkpt lat="46.636630" lon="5.268600">
						<ele>208</ele>
						<time>2020-04-27T18:31:08Z</time>
					</trkpt>
					<trkpt lat="46.635570" lon="5.267150">
						<ele>205</ele>
						<time>2020-04-27T18:34:22Z</time>
					</trkpt>
					<trkpt lat="46.635080" lon="5.266370">
						<ele>202</ele>
						<time>2020-04-27T18:35:59Z</time>
					</trkpt>
					<trkpt lat="46.635830" lon="5.265880">
						<ele>202</ele>
						<time>2020-04-27T18:37:48Z</time>
					</trkpt>
					<trkpt lat="46.636080" lon="5.265660">
						<ele>202</ele>
						<time>2020-04-27T18:38:27Z</time>
					</trkpt>
					<trkpt lat="46.636460" lon="5.265130">
						<ele>201</ele>
						<time>2020-04-27T18:39:38Z</time>
					</trkpt>
					<trkpt lat="46.636680" lon="5.264670">
						<ele>201</ele>
						<time>2020-04-27T18:40:29Z</time>
					</trkpt>
					<trkpt lat="46.636810" lon="5.264220">
						<ele>202</ele>
						<time>2020-04-27T18:41:14Z</time>
					</trkpt>
					<trkpt lat="46.636940" lon="5.263680">
						<ele>201</ele>
						<time>2020-04-27T18:42:06Z</time>
					</trkpt>
					<trkpt lat="46.637060" lon="5.263400">
						<ele>201</ele>
						<time>2020-04-27T18:42:36Z</time>
					</trkpt>
					<trkpt lat="46.637220" lon="5.262930">
						<ele>201</ele>
						<time>2020-04-27T18:43:24Z</time>
					</trkpt>
					<trkpt lat="46.637170" lon="5.262710">
						<ele>201</ele>
						<time>2020-04-27T18:43:46Z</time>
					</trkpt>
					<trkpt lat="46.637250" lon="5.262590">
						<ele>202</ele>
						<time>2020-04-27T18:44:01Z</time>
					</trkpt>
					<trkpt lat="46.637390" lon="5.262010">
						<ele>202</ele>
						<time>2020-04-27T18:44:57Z</time>
					</trkpt>
					<trkpt lat="46.637530" lon="5.261040">
						<ele>201</ele>
						<time>2020-04-27T18:46:28Z</time>
					</trkpt>
					<trkpt lat="46.637740" lon="5.259960">
						<ele>202</ele>
						<time>2020-04-27T18:48:11Z</time>
					</trkpt>
					<trkpt lat="46.637870" lon="5.259100">
						<ele>202</ele>
						<time>2020-04-27T18:49:32Z</time>
					</trkpt>
					<trkpt lat="46.638010" lon="5.257930">
						<ele>203</ele>
						<time>2020-04-27T18:51:20Z</time>
					</trkpt>
					<trkpt lat="46.638060" lon="5.257650">
						<ele>203</ele>
						<time>2020-04-27T18:51:47Z</time>
					</trkpt>
					<trkpt lat="46.638170" lon="5.256790">
						<ele>203</ele>
						<time>2020-04-27T18:53:07Z</time>
					</trkpt>
					<trkpt lat="46.638470" lon="5.255200">
						<ele>202</ele>
						<time>2020-04-27T18:55:38Z</time>
					</trkpt>
					<trkpt lat="46.638800" lon="5.254820">
						<ele>202</ele>
						<time>2020-04-27T18:56:34Z</time>
					</trkpt>
					<trkpt lat="46.639050" lon="5.254390">
						<ele>203</ele>
						<time>2020-04-27T18:57:26Z</time>
					</trkpt>
					<trkpt lat="46.639680" lon="5.252950">
						<ele>201</ele>
						<time>2020-04-27T19:00:02Z</time>
					</trkpt>
					<trkpt lat="46.639200" lon="5.252320">
						<ele>201</ele>
						<time>2020-04-27T19:01:29Z</time>
					</trkpt>
					<trkpt lat="46.639290" lon="5.252110">
						<ele>201</ele>
						<time>2020-04-27T19:01:51Z</time>
					</trkpt>
					<trkpt lat="46.639490" lon="5.251210">
						<ele>201</ele>
						<time>2020-04-27T19:03:18Z</time>
					</trkpt>
					<trkpt lat="46.639680" lon="5.249750">
						<ele>200</ele>
						<time>2020-04-27T19:05:34Z</time>
					</trkpt>
					<trkpt lat="46.639880" lon="5.248670">
						<ele>199</ele>
						<time>2020-04-27T19:07:17Z</time>
					</trkpt>
					<trkpt lat="46.639920" lon="5.248180">
						<ele>199</ele>
						<time>2020-04-27T19:08:02Z</time>
					</trkpt>
					<trkpt lat="46.640040" lon="5.247650">
						<ele>200</ele>
						<time>2020-04-27T19:08:53Z</time>
					</trkpt>
					<trkpt lat="46.640250" lon="5.247350">
						<ele>199</ele>
						<time>2020-04-27T19:09:32Z</time>
					</trkpt>
					<trkpt lat="46.640510" lon="5.246800">
						<ele>200</ele>
						<time>2020-04-27T19:10:33Z</time>
					</trkpt>
					<trkpt lat="46.640670" lon="5.246520">
						<ele>200</ele>
						<time>2020-04-27T19:11:07Z</time>
					</trkpt>
					<trkpt lat="46.640790" lon="5.246170">
						<ele>200</ele>
						<time>2020-04-27T19:11:43Z</time>
					</trkpt>
					<trkpt lat="46.641070" lon="5.245810">
						<ele>200</ele>
						<time>2020-04-27T19:12:32Z</time>
					</trkpt>
					<trkpt lat="46.641500" lon="5.245300">
						<ele>200</ele>
						<time>2020-04-27T19:13:46Z</time>
					</trkpt>
					<trkpt lat="46.641950" lon="5.245920">
						<ele>201</ele>
						<time>2020-04-27T19:15:09Z</time>
					</trkpt>
					<trkpt lat="46.642070" lon="5.246190">
						<ele>200</ele>
						<time>2020-04-27T19:15:39Z</time>
					</trkpt>
					<trkpt lat="46.642230" lon="5.246420">
						<ele>200</ele>
						<time>2020-04-27T19:16:09Z</time>
					</trkpt>
					<trkpt lat="46.642410" lon="5.246500">
						<ele>200</ele>
						<time>2020-04-27T19:16:34Z</time>
					</trkpt>
					<trkpt lat="46.642860" lon="5.246610">
						<ele>200</ele>
						<time>2020-04-27T19:17:35Z</time>
					</trkpt>
					<trkpt lat="46.643080" lon="5.246800">
						<ele>199</ele>
						<time>2020-04-27T19:18:09Z</time>
					</trkpt>
					<trkpt lat="46.643640" lon="5.247570">
						<ele>200</ele>
						<time>2020-04-27T19:19:51Z</time>
					</trkpt>
					<trkpt lat="46.643810" lon="5.247760">
						<ele>200</ele>
						<time>2020-04-27T19:20:20Z</time>
					</trkpt>
					<trkpt lat="46.643940" lon="5.247880">
						<ele>200</ele>
						<time>2020-04-27T19:20:41Z</time>
					</trkpt>
					<trkpt lat="46.644150" lon="5.248040">
						<ele>200</ele>
						<time>2020-04-27T19:21:12Z</time>
					</trkpt>
					<trkpt lat="46.644390" lon="5.248510">
						<ele>199</ele>
						<time>2020-04-27T19:22:06Z</time>
					</trkpt>
					<trkpt lat="46.644640" lon="5.248690">
						<ele>198</ele>
						<time>2020-04-27T19:22:43Z</time>
					</trkpt>
					<trkpt lat="46.644880" lon="5.248860">
						<ele>198</ele>
						<time>2020-04-27T19:23:19Z</time>
					</trkpt>
					<trkpt lat="46.645270" lon="5.248930">
						<ele>197</ele>
						<time>2020-04-27T19:24:11Z</time>
					</trkpt>
					<trkpt lat="46.646140" lon="5.248980">
						<ele>195</ele>
						<time>2020-04-27T19:26:07Z</time>
					</trkpt>
					<trkpt lat="46.646360" lon="5.249060">
						<ele>196</ele>
						<time>2020-04-27T19:26:38Z</time>
					</trkpt>
					<trkpt lat="46.646520" lon="5.249150">
						<ele>197</ele>
						<time>2020-04-27T19:27:00Z</time>
					</trkpt>
					<trkpt lat="46.646890" lon="5.249210">
						<ele>197</ele>
						<time>2020-04-27T19:27:50Z</time>
					</trkpt>
					<trkpt lat="46.647450" lon="5.248660">
						<ele>194</ele>
						<time>2020-04-27T19:29:20Z</time>
					</trkpt>
					<trkpt lat="46.647680" lon="5.248530">
						<ele>192</ele>
						<time>2020-04-27T19:29:53Z</time>
					</trkpt>
					<trkpt lat="46.647950" lon="5.248460">
						<ele>191</ele>
						<time>2020-04-27T19:30:30Z</time>
					</trkpt>
					<trkpt lat="46.648370" lon="5.248510">
						<ele>189</ele>
						<time>2020-04-27T19:31:26Z</time>
					</trkpt>
					<trkpt lat="46.648700" lon="5.248210">
						<ele>189</ele>
						<time>2020-04-27T19:32:18Z</time>
					</trkpt>
					<trkpt lat="46.648900" lon="5.248060">
						<ele>190</ele>
						<time>2020-04-27T19:32:48Z</time>
					</trkpt>
					<trkpt lat="46.649040" lon="5.248020">
						<ele>190</ele>
						<time>2020-04-27T19:33:07Z</time>
					</trkpt>
					<trkpt lat="46.649320" lon="5.248220">
						<ele>189</ele>
						<time>2020-04-27T19:33:49Z</time>
					</trkpt>
					<trkpt lat="46.649510" lon="5.248290">
						<ele>188</ele>
						<time>2020-04-27T19:34:15Z</time>
					</trkpt>
					<trkpt lat="46.649800" lon="5.248270">
						<ele>188</ele>
						<time>2020-04-27T19:34:54Z</time>
					</trkpt>
					<trkpt lat="46.649960" lon="5.248400">
						<ele>187</ele>
						<time>2020-04-27T19:35:18Z</time>
					</trkpt>
					<trkpt lat="46.650210" lon="5.248780">
						<ele>186</ele>
						<time>2020-04-27T19:36:06Z</time>
					</trkpt>
					<trkpt lat="46.650300" lon="5.248880">
						<ele>185</ele>
						<time>2020-04-27T19:36:21Z</time>
					</trkpt>
					<trkpt lat="46.650740" lon="5.250630">
						<ele>190</ele>
						<time>2020-04-27T19:39:12Z</time>
					</trkpt>
					<trkpt lat="46.650810" lon="5.251650">
						<ele>198</ele>
						<time>2020-04-27T19:40:46Z</time>
					</trkpt>
					<trkpt lat="46.650900" lon="5.251920">
						<ele>198</ele>
						<time>2020-04-27T19:41:13Z</time>
					</trkpt>
					<trkpt lat="46.651140" lon="5.252230">
						<ele>198</ele>
						<time>2020-04-27T19:41:56Z</time>
					</trkpt>
					<trkpt lat="46.651670" lon="5.253640">
						<ele>199</ele>
						<time>2020-04-27T19:44:23Z</time>
					</trkpt>
					<trkpt lat="46.651890" lon="5.254430">
						<ele>194</ele>
						<time>2020-04-27T19:45:42Z</time>
					</trkpt>
					<trkpt lat="46.651940" lon="5.254550">
						<ele>193</ele>
						<time>2020-04-27T19:45:54Z</time>
					</trkpt>
					<trkpt lat="46.651920" lon="5.255260">
						<ele>190</ele>
						<time>2020-04-27T19:47:00Z</time>
					</trkpt>
					<trkpt lat="46.651860" lon="5.255680">
						<ele>192</ele>
						<time>2020-04-27T19:47:39Z</time>
					</trkpt>
					<trkpt lat="46.651910" lon="5.256440">
						<ele>194</ele>
						<time>2020-04-27T19:48:49Z</time>
					</trkpt>
					<trkpt lat="46.651960" lon="5.256720">
						<ele>195</ele>
						<time>2020-04-27T19:49:15Z</time>
					</trkpt>
					<trkpt lat="46.652010" lon="5.256900">
						<ele>195</ele>
						<time>2020-04-27T19:49:33Z</time>
					</trkpt>
					<trkpt lat="46.652290" lon="5.258430">
						<ele>200</ele>
						<time>2020-04-27T19:51:58Z</time>
					</trkpt>
					<trkpt lat="46.652340" lon="5.258610">
						<ele>200</ele>
						<time>2020-04-27T19:52:16Z</time>
					</trkpt>
					<trkpt lat="46.652420" lon="5.258750">
						<ele>200</ele>
						<time>2020-04-27T19:52:33Z</time>
					</trkpt>
					<trkpt lat="46.652830" lon="5.259220">
						<ele>199</ele>
						<time>2020-04-27T19:53:42Z</time>
					</trkpt>
					<trkpt lat="46.653500" lon="5.259950">
						<ele>196</ele>
						<time>2020-04-27T19:55:34Z</time>
					</trkpt>
					<trkpt lat="46.654000" lon="5.260650">
						<ele>193</ele>
						<time>2020-04-27T19:57:06Z</time>
					</trkpt>
					<trkpt lat="46.654290" lon="5.261080">
						<ele>191</ele>
						<time>2020-04-27T19:58:02Z</time>
					</trkpt>
					<trkpt lat="46.654600" lon="5.261580">
						<ele>188</ele>
						<time>2020-04-27T19:59:03Z</time>
					</trkpt>
					<trkpt lat="46.654870" lon="5.261900">
						<ele>186</ele>
						<time>2020-04-27T19:59:50Z</time>
					</trkpt>
					<trkpt lat="46.655020" lon="5.262060">
						<ele>185</ele>
						<time>2020-04-27T20:00:15Z</time>
					</trkpt>
					<trkpt lat="46.655140" lon="5.262220">
						<ele>185</ele>
						<time>2020-04-27T20:00:36Z</time>
					</trkpt>
					<trkpt lat="46.655260" lon="5.262540">
						<ele>184</ele>
						<time>2020-04-27T20:01:10Z</time>
					</trkpt>
					<trkpt lat="46.655330" lon="5.262760">
						<ele>185</ele>
						<time>2020-04-27T20:01:32Z</time>
					</trkpt>
					<trkpt lat="46.655430" lon="5.262980">
						<ele>185</ele>
						<time>2020-04-27T20:01:56Z</time>
					</trkpt>
					<trkpt lat="46.655590" lon="5.263220">
						<ele>185</ele>
						<time>2020-04-27T20:02:27Z</time>
					</trkpt>
					<trkpt lat="46.656250" lon="5.263790">
						<ele>184</ele>
						<time>2020-04-27T20:04:09Z</time>
					</trkpt>
					<trkpt lat="46.656410" lon="5.263910">
						<ele>184</ele>
						<time>2020-04-27T20:04:33Z</time>
					</trkpt>
					<trkpt lat="46.656520" lon="5.264020">
						<ele>183</ele>
						<time>2020-04-27T20:04:51Z</time>
					</trkpt>
					<trkpt lat="46.656760" lon="5.264450">
						<ele>183</ele>
						<time>2020-04-27T20:05:42Z</time>
					</trkpt>
					<trkpt lat="46.656830" lon="5.264660">
						<ele>183</ele>
						<time>2020-04-27T20:06:03Z</time>
					</trkpt>
					<trkpt lat="46.656880" lon="5.264860">
						<ele>184</ele>
						<time>2020-04-27T20:06:23Z</time>
					</trkpt>
					<trkpt lat="46.656900" lon="5.265150">
						<ele>184</ele>
						<time>2020-04-27T20:06:49Z</time>
					</trkpt>
					<trkpt lat="46.656900" lon="5.265420">
						<ele>184</ele>
						<time>2020-04-27T20:07:14Z</time>
					</trkpt>
					<trkpt lat="46.656860" lon="5.265810">
						<ele>185</ele>
						<time>2020-04-27T20:07:50Z</time>
					</trkpt>
					<trkpt lat="46.656760" lon="5.266120">
						<ele>185</ele>
						<time>2020-04-27T20:08:21Z</time>
					</trkpt>
					<trkpt lat="46.656600" lon="5.266380">
						<ele>185</ele>
						<time>2020-04-27T20:08:53Z</time>
					</trkpt>
					<trkpt lat="46.656470" lon="5.266510">
						<ele>185</ele>
						<time>2020-04-27T20:09:14Z</time>
					</trkpt>
					<trkpt lat="46.656690" lon="5.266850">
						<ele>184</ele>
						<time>2020-04-27T20:09:57Z</time>
					</trkpt>
					<trkpt lat="46.656610" lon="5.267070">
						<ele>184</ele>
						<time>2020-04-27T20:10:20Z</time>
					</trkpt>
					<trkpt lat="46.656410" lon="5.267950">
						<ele>185</ele>
						<time>2020-04-27T20:11:45Z</time>
					</trkpt>
					<trkpt lat="46.656340" lon="5.268640">
						<ele>186</ele>
						<time>2020-04-27T20:12:49Z</time>
					</trkpt>
					<trkpt lat="46.656360" lon="5.268900">
						<ele>187</ele>
						<time>2020-04-27T20:13:13Z</time>
					</trkpt>
					<trkpt lat="46.656400" lon="5.269060">
						<ele>187</ele>
						<time>2020-04-27T20:13:28Z</time>
					</trkpt>
					<trkpt lat="46.656520" lon="5.269360">
						<ele>188</ele>
						<time>2020-04-27T20:14:00Z</time>
					</trkpt>
					<trkpt lat="46.656650" lon="5.269640">
						<ele>189</ele>
						<time>2020-04-27T20:14:31Z</time>
					</trkpt>
					<trkpt lat="46.656690" lon="5.269730">
						<ele>189</ele>
						<time>2020-04-27T20:14:41Z</time>
					</trkpt>
					<trkpt lat="46.657100" lon="5.269130">
						<ele>191</ele>
						<time>2020-04-27T20:15:59Z</time>
					</trkpt>
					<trkpt lat="46.657220" lon="5.268990">
						<ele>192</ele>
						<time>2020-04-27T20:16:19Z</time>
					</trkpt>
					<trkpt lat="46.657370" lon="5.268900">
						<ele>193</ele>
						<time>2020-04-27T20:16:41Z</time>
					</trkpt>
					<trkpt lat="46.657540" lon="5.268930">
						<ele>194</ele>
						<time>2020-04-27T20:17:04Z</time>
					</trkpt>
					<trkpt lat="46.657760" lon="5.269160">
						<ele>195</ele>
						<time>2020-04-27T20:17:40Z</time>
					</trkpt>
					<trkpt lat="46.657830" lon="5.269150">
						<ele>195</ele>
						<time>2020-04-27T20:17:49Z</time>
					</trkpt>
					<trkpt lat="46.657890" lon="5.269060">
						<ele>195</ele>
						<time>2020-04-27T20:18:01Z</time>
					</trkpt>
					<trkpt lat="46.657940" lon="5.268740">
						<ele>195</ele>
						<time>2020-04-27T20:18:31Z</time>
					</trkpt>
					<trkpt lat="46.658060" lon="5.268220">
						<ele>195</ele>
						<time>2020-04-27T20:19:21Z</time>
					</trkpt>
					<trkpt lat="46.658710" lon="5.268550">
						<ele>195</ele>
						<time>2020-04-27T20:20:53Z</time>
					</trkpt>
					<trkpt lat="46.659020" lon="5.268780">
						<ele>194</ele>
						<time>2020-04-27T20:21:39Z</time>
					</trkpt>
					<trkpt lat="46.658950" lon="5.269100">
						<ele>195</ele>
						<time>2020-04-27T20:22:10Z</time>
					</trkpt>
					<trkpt lat="46.658940" lon="5.269370">
						<ele>196</ele>
						<time>2020-04-27T20:22:35Z</time>
					</trkpt>
					<trkpt lat="46.659080" lon="5.269650">
						<ele>196</ele>
						<time>2020-04-27T20:23:06Z</time>
					</trkpt>
					<trkpt lat="46.659120" lon="5.269790">
						<ele>196</ele>
						<time>2020-04-27T20:23:20Z</time>
					</trkpt>
					<trkpt lat="46.659130" lon="5.270250">
						<ele>197</ele>
						<time>2020-04-27T20:24:02Z</time>
					</trkpt>
					<trkpt lat="46.659190" lon="5.270610">
						<ele>196</ele>
						<time>2020-04-27T20:24:36Z</time>
					</trkpt>
					<trkpt lat="46.659250" lon="5.270840">
						<ele>195</ele>
						<time>2020-04-27T20:24:59Z</time>
					</trkpt>
					<trkpt lat="46.659330" lon="5.271010">
						<ele>195</ele>
						<time>2020-04-27T20:25:18Z</time>
					</trkpt>
					<trkpt lat="46.659400" lon="5.271240">
						<ele>194</ele>
						<time>2020-04-27T20:25:41Z</time>
					</trkpt>
					<trkpt lat="46.659390" lon="5.271450">
						<ele>194</ele>
						<time>2020-04-27T20:26:00Z</time>
					</trkpt>
					<trkpt lat="46.659360" lon="5.271610">
						<ele>194</ele>
						<time>2020-04-27T20:26:15Z</time>
					</trkpt>
					<trkpt lat="46.659190" lon="5.271880">
						<ele>194</ele>
						<time>2020-04-27T20:26:49Z</time>
					</trkpt>
					<trkpt lat="46.659020" lon="5.272160">
						<ele>193</ele>
						<time>2020-04-27T20:27:23Z</time>
					</trkpt>
					<trkpt lat="46.658950" lon="5.272280">
						<ele>193</ele>
						<time>2020-04-27T20:27:38Z</time>
					</trkpt>
					<trkpt lat="46.659020" lon="5.272500">
						<ele>193</ele>
						<time>2020-04-27T20:28:00Z</time>
					</trkpt>
					<trkpt lat="46.659820" lon="5.273360">
						<ele>193</ele>
						<time>2020-04-27T20:30:12Z</time>
					</trkpt>
					<trkpt lat="46.659900" lon="5.273490">
						<ele>193</ele>
						<time>2020-04-27T20:30:28Z</time>
					</trkpt>
					<trkpt lat="46.660010" lon="5.273370">
						<ele>193</ele>
						<time>2020-04-27T20:30:47Z</time>
					</trkpt>
					<trkpt lat="46.660610" lon="5.272590">
						<ele>189</ele>
						<time>2020-04-27T20:32:34Z</time>
					</trkpt>
					<trkpt lat="46.660710" lon="5.272500">
						<ele>188</ele>
						<time>2020-04-27T20:32:50Z</time>
					</trkpt>
					<trkpt lat="46.660840" lon="5.272580">
						<ele>187</ele>
						<time>2020-04-27T20:33:09Z</time>
					</trkpt>
					<trkpt lat="46.660990" lon="5.272560">
						<ele>186</ele>
						<time>2020-04-27T20:33:29Z</time>
					</trkpt>
					<trkpt lat="46.661970" lon="5.271590">
						<ele>182</ele>
						<time>2020-04-27T20:36:07Z</time>
					</trkpt>
					<trkpt lat="46.662100" lon="5.271480">
						<ele>182</ele>
						<time>2020-04-27T20:36:27Z</time>
					</trkpt>
					<trkpt lat="46.662040" lon="5.271440">
						<ele>182</ele>
						<time>2020-04-27T20:36:36Z</time>
					</trkpt>
					<trkpt lat="46.661100" lon="5.269380">
						<ele>183</ele>
						<time>2020-04-27T20:40:22Z</time>
					</trkpt>
					<trkpt lat="46.661080" lon="5.269250">
						<ele>183</ele>
						<time>2020-04-27T20:40:34Z</time>
					</trkpt>
					<trkpt lat="46.661120" lon="5.268940">
						<ele>182</ele>
						<time>2020-04-27T20:41:03Z</time>
					</trkpt>
					</trkseg>
				</trk>
			</gpx>